sensor_id;sensor_type;location;lat;lon;timestamp;P1;durP1;ratioP1;P2;durP2;ratioP2
42194;SDS011;27863;49.440;11.102;2023-03-20T00:01:01;5.37;;;4.97;;
42194;SDS011;27863;49.440;11.102;2023-03-20T00:04:03;5.37;;;4.97;;
42194;SDS011;27863;49.440;11.102;2023-03-20T00:07:03;6.53;;;6.03;;
42194;SDS011;27863;49.440;11.102;2023-03-20T00:10:04;5.63;;;5.13;;
42194;SDS011;27863;49.440;11.102;2023-03-20T00:13:16;5.70;;;5.20;;
42194;SDS011;27863;49.440;11.102;2023-03-20T00:16:24;5.73;;;5.23;;
42194;SDS011;27863;49.440;11.102;2023-03-20T00:19:29;6.43;;;5.93;;
42194;SDS011;27863;49.440;11.102;2023-03-20T00:22:30;6.93;;;6.33;;
42194;SDS011;27863;49.440;11.102;2023-03-20T00:25:31;6.03;;;5.53;;
42194;SDS011;27863;49.440;11.102;2023-03-20T00:28:40;6.60;;;6.10;;
42194;SDS011;27863;49.440;11.102;2023-03-20T00:31:42;7.27;;;6.67;;
42194;SDS011;27863;49.440;11.102;2023-03-20T00:34:44;6.03;;;5.53;;
42194;SDS011;27863;49.440;11.102;2023-03-20T00:37:46;6.60;;;6.10;;
42194;SDS011;27863;49.440;11.102;2023-03-20T00:40:48;6.30;;;5.83;;
42194;SDS011;27863;49.440;11.102;2023-03-20T00:43:51;6.80;;;6.20;;
42194;SDS011;27863;49.440;11.102;2023-03-20T00:46:56;5.77;;;5.27;;
42194;SDS011;27863;49.440;11.102;2023-03-20T00:50:17;6.20;;;5.60;;
42194;SDS011;27863;49.440;11.102;2023-03-20T00:53:19;5.83;;;5.23;;
42194;SDS011;27863;49.440;11.102;2023-03-20T00:56:26;6.13;;;5.63;;
42194;SDS011;27863;49.440;11.102;2023-03-20T00:59:40;7.30;;;6.60;;
42194;SDS011;27863;49.440;11.102;2023-03-20T01:02:54;7.03;;;6.43;;
42194;SDS011;27863;49.440;11.102;2023-03-20T01:05:57;6.83;;;6.23;;
42194;SDS011;27863;49.440;11.102;2023-03-20T01:08:59;6.43;;;5.93;;
42194;SDS011;27863;49.440;11.102;2023-03-20T01:12:00;5.63;;;5.23;;
42194;SDS011;27863;49.440;11.102;2023-03-20T01:15:02;7.20;;;6.60;;
42194;SDS011;27863;49.440;11.102;2023-03-20T01:18:02;8.33;;;6.63;;
42194;SDS011;27863;49.440;11.102;2023-03-20T01:21:03;7.77;;;6.00;;
42194;SDS011;27863;49.440;11.102;2023-03-20T01:24:03;7.27;;;6.67;;
42194;SDS011;27863;49.440;11.102;2023-03-20T01:27:16;6.93;;;5.57;;
42194;SDS011;27863;49.440;11.102;2023-03-20T01:33:24;6.07;;;5.57;;
42194;SDS011;27863;49.440;11.102;2023-03-20T01:36:29;5.87;;;5.27;;
42194;SDS011;27863;49.440;11.102;2023-03-20T01:39:31;5.13;;;4.77;;
42194;SDS011;27863;49.440;11.102;2023-03-20T01:42:33;5.73;;;5.23;;
42194;SDS011;27863;49.440;11.102;2023-03-20T01:45:34;5.73;;;5.23;;
42194;SDS011;27863;49.440;11.102;2023-03-20T01:51:54;5.50;;;5.00;;
42194;SDS011;27863;49.440;11.102;2023-03-20T01:55:00;5.77;;;5.27;;
42194;SDS011;27863;49.440;11.102;2023-03-20T01:58:07;5.60;;;4.93;;
42194;SDS011;27863;49.440;11.102;2023-03-20T02:01:12;4.63;;;4.33;;
42194;SDS011;27863;49.440;11.102;2023-03-20T02:04:15;5.97;;;5.10;;
42194;SDS011;27863;49.440;11.102;2023-03-20T02:07:24;4.67;;;4.27;;
42194;SDS011;27863;49.440;11.102;2023-03-20T02:10:33;5.30;;;4.80;;
42194;SDS011;27863;49.440;11.102;2023-03-20T02:13:45;5.87;;;5.33;;
42194;SDS011;27863;49.440;11.102;2023-03-20T02:16:47;4.90;;;4.60;;
42194;SDS011;27863;49.440;11.102;2023-03-20T02:20:06;5.17;;;4.77;;
42194;SDS011;27863;49.440;11.102;2023-03-20T02:34:15;5.43;;;4.93;;
42194;SDS011;27863;49.440;11.102;2023-03-20T02:44:16;4.97;;;4.57;;
42194;SDS011;27863;49.440;11.102;2023-03-20T02:47:22;5.37;;;4.97;;
42194;SDS011;27863;49.440;11.102;2023-03-20T02:54:12;5.87;;;5.47;;
42194;SDS011;27863;49.440;11.102;2023-03-20T02:57:49;6.23;;;5.00;;
42194;SDS011;27863;49.440;11.102;2023-03-20T03:00:56;5.13;;;4.73;;
42194;SDS011;27863;49.440;11.102;2023-03-20T03:04:08;4.77;;;4.37;;
42194;SDS011;27863;49.440;11.102;2023-03-20T03:07:11;5.20;;;4.77;;
42194;SDS011;27863;49.440;11.102;2023-03-20T03:10:14;5.47;;;5.07;;
42194;SDS011;27863;49.440;11.102;2023-03-20T03:13:24;4.97;;;4.57;;
42194;SDS011;27863;49.440;11.102;2023-03-20T03:16:29;5.53;;;5.03;;
42194;SDS011;27863;49.440;11.102;2023-03-20T03:19:31;6.40;;;5.17;;
42194;SDS011;27863;49.440;11.102;2023-03-20T03:22:33;5.60;;;5.10;;
42194;SDS011;27863;49.440;11.102;2023-03-20T03:25:37;4.90;;;4.47;;
42194;SDS011;27863;49.440;11.102;2023-03-20T03:28:45;5.50;;;5.10;;
42194;SDS011;27863;49.440;11.102;2023-03-20T03:31:49;6.27;;;5.77;;
42194;SDS011;27863;49.440;11.102;2023-03-20T03:34:50;5.83;;;5.43;;
42194;SDS011;27863;49.440;11.102;2023-03-20T03:37:58;7.47;;;6.90;;
42194;SDS011;27863;49.440;11.102;2023-03-20T03:44:06;6.87;;;6.37;;
42194;SDS011;27863;49.440;11.102;2023-03-20T03:47:21;7.77;;;7.03;;
42194;SDS011;27863;49.440;11.102;2023-03-20T03:50:31;7.33;;;6.63;;
42194;SDS011;27863;49.440;11.102;2023-03-20T03:53:39;8.03;;;7.23;;
42194;SDS011;27863;49.440;11.102;2023-03-20T03:56:41;8.57;;;7.97;;
42194;SDS011;27863;49.440;11.102;2023-03-20T03:59:45;6.67;;;6.13;;
42194;SDS011;27863;49.440;11.102;2023-03-20T04:02:49;9.20;;;8.40;;
42194;SDS011;27863;49.440;11.102;2023-03-20T04:05:53;8.63;;;8.00;;
42194;SDS011;27863;49.440;11.102;2023-03-20T04:08:55;10.13;;;9.33;;
42194;SDS011;27863;49.440;11.102;2023-03-20T04:11:58;9.47;;;8.47;;
42194;SDS011;27863;49.440;11.102;2023-03-20T04:14:59;9.80;;;8.63;;
42194;SDS011;27863;49.440;11.102;2023-03-20T04:18:02;10.17;;;9.37;;
42194;SDS011;27863;49.440;11.102;2023-03-20T04:21:04;9.43;;;8.63;;
42194;SDS011;27863;49.440;11.102;2023-03-20T04:24:05;9.90;;;9.00;;
42194;SDS011;27863;49.440;11.102;2023-03-20T04:27:07;10.63;;;9.73;;
42194;SDS011;27863;49.440;11.102;2023-03-20T04:30:08;10.97;;;10.07;;
42194;SDS011;27863;49.440;11.102;2023-03-20T04:33:32;14.23;;;13.03;;
42194;SDS011;27863;49.440;11.102;2023-03-20T04:36:55;15.77;;;14.47;;
42194;SDS011;27863;49.440;11.102;2023-03-20T04:40:02;12.40;;;11.33;;
42194;SDS011;27863;49.440;11.102;2023-03-20T04:43:04;11.63;;;10.63;;
42194;SDS011;27863;49.440;11.102;2023-03-20T04:46:06;11.30;;;10.40;;
42194;SDS011;27863;49.440;11.102;2023-03-20T04:49:10;11.70;;;10.67;;
42194;SDS011;27863;49.440;11.102;2023-03-20T04:52:12;10.63;;;9.73;;
42194;SDS011;27863;49.440;11.102;2023-03-20T04:55:16;10.43;;;9.63;;
42194;SDS011;27863;49.440;11.102;2023-03-20T04:58:16;11.47;;;10.30;;
42194;SDS011;27863;49.440;11.102;2023-03-20T05:01:17;10.90;;;10.00;;
42194;SDS011;27863;49.440;11.102;2023-03-20T05:04:19;10.73;;;9.83;;
42194;SDS011;27863;49.440;11.102;2023-03-20T05:07:20;9.40;;;8.60;;
42194;SDS011;27863;49.440;11.102;2023-03-20T05:10:34;9.07;;;8.37;;
42194;SDS011;27863;49.440;11.102;2023-03-20T05:13:58;8.50;;;7.80;;
42194;SDS011;27863;49.440;11.102;2023-03-20T05:16:59;8.77;;;7.93;;
42194;SDS011;27863;49.440;11.102;2023-03-20T05:20:19;8.23;;;7.60;;
42194;SDS011;27863;49.440;11.102;2023-03-20T05:23:38;7.90;;;7.27;;
42194;SDS011;27863;49.440;11.102;2023-03-20T05:26:57;9.70;;;8.80;;
42194;SDS011;27863;49.440;11.102;2023-03-20T05:30:30;11.23;;;10.07;;
42194;SDS011;27863;49.440;11.102;2023-03-20T05:34:00;9.80;;;9.00;;
42194;SDS011;27863;49.440;11.102;2023-03-20T05:37:14;9.67;;;8.77;;
42194;SDS011;27863;49.440;11.102;2023-03-20T05:40:32;10.63;;;9.63;;
42194;SDS011;27863;49.440;11.102;2023-03-20T05:43:55;10.30;;;9.03;;
42194;SDS011;27863;49.440;11.102;2023-03-20T05:47:14;9.47;;;8.53;;
42194;SDS011;27863;49.440;11.102;2023-03-20T05:50:32;9.90;;;9.10;;
42194;SDS011;27863;49.440;11.102;2023-03-20T05:53:52;9.57;;;8.73;;
42194;SDS011;27863;49.440;11.102;2023-03-20T05:57:22;9.50;;;8.57;;
42194;SDS011;27863;49.440;11.102;2023-03-20T06:00:25;10.47;;;9.57;;
42194;SDS011;27863;49.440;11.102;2023-03-20T06:03:46;10.17;;;9.27;;
42194;SDS011;27863;49.440;11.102;2023-03-20T06:06:53;10.33;;;9.17;;
42194;SDS011;27863;49.440;11.102;2023-03-20T06:09:55;10.87;;;9.87;;
42194;SDS011;27863;49.440;11.102;2023-03-20T06:13:06;8.93;;;8.23;;
42194;SDS011;27863;49.440;11.102;2023-03-20T06:16:07;10.60;;;9.70;;
42194;SDS011;27863;49.440;11.102;2023-03-20T06:19:09;9.50;;;8.70;;
42194;SDS011;27863;49.440;11.102;2023-03-20T06:22:10;11.03;;;10.03;;
42194;SDS011;27863;49.440;11.102;2023-03-20T06:25:11;11.30;;;10.27;;
42194;SDS011;27863;49.440;11.102;2023-03-20T06:28:15;11.67;;;10.47;;
42194;SDS011;27863;49.440;11.102;2023-03-20T06:31:18;10.77;;;9.63;;
42194;SDS011;27863;49.440;11.102;2023-03-20T06:34:18;11.37;;;10.33;;
42194;SDS011;27863;49.440;11.102;2023-03-20T06:37:21;11.63;;;9.83;;
42194;SDS011;27863;49.440;11.102;2023-03-20T06:40:24;10.33;;;9.53;;
42194;SDS011;27863;49.440;11.102;2023-03-20T06:43:27;11.10;;;10.13;;
42194;SDS011;27863;49.440;11.102;2023-03-20T06:46:29;11.30;;;10.17;;
42194;SDS011;27863;49.440;11.102;2023-03-20T06:49:29;11.93;;;10.83;;
42194;SDS011;27863;49.440;11.102;2023-03-20T06:52:32;10.83;;;9.93;;
42194;SDS011;27863;49.440;11.102;2023-03-20T06:56:02;9.60;;;8.80;;
42194;SDS011;27863;49.440;11.102;2023-03-20T06:59:03;10.00;;;9.13;;
42194;SDS011;27863;49.440;11.102;2023-03-20T07:02:08;9.93;;;9.07;;
42194;SDS011;27863;49.440;11.102;2023-03-20T07:05:09;10.03;;;9.27;;
42194;SDS011;27863;49.440;11.102;2023-03-20T07:08:12;9.07;;;8.27;;
42194;SDS011;27863;49.440;11.102;2023-03-20T07:11:12;8.50;;;7.70;;
42194;SDS011;27863;49.440;11.102;2023-03-20T07:14:14;8.57;;;7.87;;
42194;SDS011;27863;49.440;11.102;2023-03-20T07:17:22;9.87;;;9.07;;
42194;SDS011;27863;49.440;11.102;2023-03-20T07:20:23;9.93;;;8.40;;
42194;SDS011;27863;49.440;11.102;2023-03-20T07:23:23;8.53;;;7.77;;
42194;SDS011;27863;49.440;11.102;2023-03-20T07:26:24;7.77;;;7.13;;
42194;SDS011;27863;49.440;11.102;2023-03-20T07:29:26;7.70;;;7.10;;
42194;SDS011;27863;49.440;11.102;2023-03-20T07:32:29;8.03;;;7.33;;
42194;SDS011;27863;49.440;11.102;2023-03-20T07:35:31;6.90;;;6.30;;
42194;SDS011;27863;49.440;11.102;2023-03-20T07:38:32;8.30;;;7.60;;
42194;SDS011;27863;49.440;11.102;2023-03-20T07:41:41;7.00;;;6.40;;
42194;SDS011;27863;49.440;11.102;2023-03-20T07:44:43;6.67;;;6.07;;
42194;SDS011;27863;49.440;11.102;2023-03-20T07:47:45;6.53;;;5.70;;
42194;SDS011;27863;49.440;11.102;2023-03-20T07:50:49;6.03;;;5.53;;
42194;SDS011;27863;49.440;11.102;2023-03-20T07:53:56;5.60;;;5.20;;
42194;SDS011;27863;49.440;11.102;2023-03-20T07:56:56;6.07;;;5.57;;
42194;SDS011;27863;49.440;11.102;2023-03-20T08:00:04;5.40;;;4.90;;
42194;SDS011;27863;49.440;11.102;2023-03-20T08:03:11;6.43;;;5.83;;
42194;SDS011;27863;49.440;11.102;2023-03-20T08:06:14;6.03;;;5.50;;
42194;SDS011;27863;49.440;11.102;2023-03-20T08:09:15;6.60;;;6.10;;
42194;SDS011;27863;49.440;11.102;2023-03-20T08:12:16;6.13;;;5.63;;
42194;SDS011;27863;49.440;11.102;2023-03-20T08:15:17;6.60;;;6.03;;
42194;SDS011;27863;49.440;11.102;2023-03-20T08:18:17;5.90;;;5.40;;
42194;SDS011;27863;49.440;11.102;2023-03-20T08:21:21;5.90;;;5.40;;
42194;SDS011;27863;49.440;11.102;2023-03-20T08:24:23;4.57;;;4.13;;
42194;SDS011;27863;49.440;11.102;2023-03-20T08:27:25;4.90;;;4.50;;
42194;SDS011;27863;49.440;11.102;2023-03-20T08:30:25;4.07;;;3.77;;
42194;SDS011;27863;49.440;11.102;2023-03-20T08:33:33;3.93;;;3.17;;
42194;SDS011;27863;49.440;11.102;2023-03-20T08:36:33;3.73;;;3.43;;
42194;SDS011;27863;49.440;11.102;2023-03-20T08:39:35;3.83;;;3.53;;
42194;SDS011;27863;49.440;11.102;2023-03-20T08:42:37;3.97;;;3.00;;
42194;SDS011;27863;49.440;11.102;2023-03-20T08:45:46;4.43;;;4.03;;
42194;SDS011;27863;49.440;11.102;2023-03-20T08:48:49;3.37;;;3.13;;
42194;SDS011;27863;49.440;11.102;2023-03-20T08:51:54;3.70;;;3.40;;
42194;SDS011;27863;49.440;11.102;2023-03-20T08:54:59;3.23;;;2.93;;
42194;SDS011;27863;49.440;11.102;2023-03-20T08:58:10;2.77;;;2.50;;
42194;SDS011;27863;49.440;11.102;2023-03-20T09:01:11;3.20;;;2.90;;
42194;SDS011;27863;49.440;11.102;2023-03-20T09:04:13;2.43;;;2.23;;
42194;SDS011;27863;49.440;11.102;2023-03-20T09:07:13;3.57;;;3.10;;
42194;SDS011;27863;49.440;11.102;2023-03-20T09:10:16;2.97;;;2.77;;
42194;SDS011;27863;49.440;11.102;2023-03-20T09:13:16;3.50;;;3.13;;
42194;SDS011;27863;49.440;11.102;2023-03-20T09:16:17;5.23;;;4.37;;
42194;SDS011;27863;49.440;11.102;2023-03-20T09:19:18;3.87;;;3.53;;
42194;SDS011;27863;49.440;11.102;2023-03-20T09:22:20;4.33;;;3.93;;
42194;SDS011;27863;49.440;11.102;2023-03-20T09:25:21;4.27;;;3.60;;
42194;SDS011;27863;49.440;11.102;2023-03-20T09:28:21;3.20;;;2.90;;
42194;SDS011;27863;49.440;11.102;2023-03-20T09:31:22;3.83;;;2.83;;
42194;SDS011;27863;49.440;11.102;2023-03-20T09:34:24;3.23;;;2.93;;
42194;SDS011;27863;49.440;11.102;2023-03-20T09:37:25;4.20;;;3.00;;
42194;SDS011;27863;49.440;11.102;2023-03-20T09:40:27;3.70;;;3.03;;
42194;SDS011;27863;49.440;11.102;2023-03-20T09:47:04;3.63;;;2.87;;
42194;SDS011;27863;49.440;11.102;2023-03-20T09:56:39;2.07;;;1.97;;
42194;SDS011;27863;49.440;11.102;2023-03-20T09:59:40;4.93;;;2.17;;
42194;SDS011;27863;49.440;11.102;2023-03-20T10:02:52;2.70;;;2.43;;
42194;SDS011;27863;49.440;11.102;2023-03-20T10:06:14;2.10;;;2.00;;
42194;SDS011;27863;49.440;11.102;2023-03-20T10:09:23;2.93;;;2.43;;
42194;SDS011;27863;49.440;11.102;2023-03-20T10:15:44;2.90;;;2.70;;
42194;SDS011;27863;49.440;11.102;2023-03-20T10:18:56;2.03;;;1.93;;
42194;SDS011;27863;49.440;11.102;2023-03-20T10:25:28;4.68;;;2.50;;
42194;SDS011;27863;49.440;11.102;2023-03-20T10:28:35;2.58;;;1.88;;
42194;SDS011;27863;49.440;11.102;2023-03-20T10:31:42;2.08;;;1.88;;
42194;SDS011;27863;49.440;11.102;2023-03-20T10:34:52;3.72;;;1.85;;
42194;SDS011;27863;49.440;11.102;2023-03-20T10:41:24;2.70;;;1.90;;
42194;SDS011;27863;49.440;11.102;2023-03-20T10:44:40;4.47;;;2.28;;
42194;SDS011;27863;49.440;11.102;2023-03-20T10:47:46;2.30;;;2.10;;
42194;SDS011;27863;49.440;11.102;2023-03-20T10:50:52;4.68;;;2.38;;
42194;SDS011;27863;49.440;11.102;2023-03-20T10:53:55;3.97;;;1.90;;
42194;SDS011;27863;49.440;11.102;2023-03-20T10:57:01;1.80;;;1.70;;
42194;SDS011;27863;49.440;11.102;2023-03-20T11:00:03;2.33;;;2.13;;
42194;SDS011;27863;49.440;11.102;2023-03-20T11:03:15;2.30;;;2.10;;
42194;SDS011;27863;49.440;11.102;2023-03-20T11:06:21;2.05;;;1.83;;
42194;SDS011;27863;49.440;11.102;2023-03-20T11:09:33;2.97;;;2.40;;
42194;SDS011;27863;49.440;11.102;2023-03-20T11:12:35;2.47;;;2.28;;
42194;SDS011;27863;49.440;11.102;2023-03-20T11:15:43;1.95;;;1.75;;
42194;SDS011;27863;49.440;11.102;2023-03-20T11:18:44;2.20;;;1.90;;
42194;SDS011;27863;49.440;11.102;2023-03-20T11:21:50;4.82;;;1.98;;
42194;SDS011;27863;49.440;11.102;2023-03-20T11:25:00;2.00;;;1.80;;
42194;SDS011;27863;49.440;11.102;2023-03-20T11:28:36;2.58;;;1.70;;
42194;SDS011;27863;49.440;11.102;2023-03-20T11:31:38;1.60;;;1.50;;
42194;SDS011;27863;49.440;11.102;2023-03-20T11:34:39;1.70;;;1.60;;
42194;SDS011;27863;49.440;11.102;2023-03-20T11:37:43;1.98;;;1.88;;
42194;SDS011;27863;49.440;11.102;2023-03-20T11:40:46;2.67;;;1.40;;
42194;SDS011;27863;49.440;11.102;2023-03-20T11:43:48;2.45;;;2.17;;
42194;SDS011;27863;49.440;11.102;2023-03-20T11:47:02;1.63;;;1.52;;
42194;SDS011;27863;49.440;11.102;2023-03-20T11:50:28;1.92;;;1.60;;
42194;SDS011;27863;49.440;11.102;2023-03-20T11:53:39;7.07;;;2.40;;
42194;SDS011;27863;49.440;11.102;2023-03-20T11:56:49;2.13;;;1.80;;
42194;SDS011;27863;49.440;11.102;2023-03-20T11:59:52;1.88;;;1.77;;
42194;SDS011;27863;49.440;11.102;2023-03-20T12:02:55;2.20;;;1.92;;
42194;SDS011;27863;49.440;11.102;2023-03-20T12:05:58;2.38;;;2.03;;
42194;SDS011;27863;49.440;11.102;2023-03-20T12:09:02;2.33;;;2.13;;
42194;SDS011;27863;49.440;11.102;2023-03-20T12:15:34;2.20;;;2.00;;
42194;SDS011;27863;49.440;11.102;2023-03-20T12:19:03;2.05;;;1.85;;
42194;SDS011;27863;49.440;11.102;2023-03-20T12:22:15;2.22;;;2.03;;
42194;SDS011;27863;49.440;11.102;2023-03-20T12:25:26;3.08;;;2.78;;
42194;SDS011;27863;49.440;11.102;2023-03-20T12:28:39;3.75;;;2.88;;
42194;SDS011;27863;49.440;11.102;2023-03-20T12:32:01;2.60;;;2.40;;
42194;SDS011;27863;49.440;11.102;2023-03-20T12:38:15;3.15;;;2.58;;
42194;SDS011;27863;49.440;11.102;2023-03-20T12:41:23;2.45;;;2.25;;
42194;SDS011;27863;49.440;11.102;2023-03-20T12:44:28;3.33;;;2.22;;
42194;SDS011;27863;49.440;11.102;2023-03-20T12:47:45;1.88;;;1.77;;
42194;SDS011;27863;49.440;11.102;2023-03-20T12:51:04;3.45;;;2.20;;
42194;SDS011;27863;49.440;11.102;2023-03-20T13:01:48;2.78;;;2.58;;
42194;SDS011;27863;49.440;11.102;2023-03-20T13:04:58;2.75;;;2.55;;
42194;SDS011;27863;49.440;11.102;2023-03-20T13:08:16;3.42;;;2.08;;
42194;SDS011;27863;49.440;11.102;2023-03-20T13:21:32;2.53;;;2.33;;
42194;SDS011;27863;49.440;11.102;2023-03-20T13:24:44;3.05;;;2.75;;
42194;SDS011;27863;49.440;11.102;2023-03-20T13:27:48;3.58;;;2.90;;
42194;SDS011;27863;49.440;11.102;2023-03-20T13:37:53;2.55;;;2.35;;
42194;SDS011;27863;49.440;11.102;2023-03-20T13:41:01;4.00;;;2.73;;
42194;SDS011;27863;49.440;11.102;2023-03-20T13:44:04;28.87;;;4.83;;
42194;SDS011;27863;49.440;11.102;2023-03-20T13:47:14;5.50;;;2.70;;
42194;SDS011;27863;49.440;11.102;2023-03-20T13:53:38;2.47;;;2.00;;
42194;SDS011;27863;49.440;11.102;2023-03-20T14:09:40;2.75;;;2.00;;
42194;SDS011;27863;49.440;11.102;2023-03-20T14:12:40;2.33;;;2.00;;
42194;SDS011;27863;49.440;11.102;2023-03-20T14:15:54;3.33;;;2.22;;
42194;SDS011;27863;49.440;11.102;2023-03-20T14:19:14;2.13;;;1.92;;
42194;SDS011;27863;49.440;11.102;2023-03-20T14:22:18;3.42;;;2.63;;
42194;SDS011;27863;49.440;11.102;2023-03-20T14:25:20;2.65;;;2.40;;
42194;SDS011;27863;49.440;11.102;2023-03-20T14:28:24;5.88;;;3.08;;
42194;SDS011;27863;49.440;11.102;2023-03-20T14:31:28;5.32;;;3.70;;
42194;SDS011;27863;49.440;11.102;2023-03-20T14:34:44;4.03;;;3.30;;
42194;SDS011;27863;49.440;11.102;2023-03-20T14:38:03;7.57;;;3.55;;
42194;SDS011;27863;49.440;11.102;2023-03-20T14:41:19;7.63;;;2.85;;
42194;SDS011;27863;49.440;11.102;2023-03-20T14:44:23;15.10;;;3.80;;
42194;SDS011;27863;49.440;11.102;2023-03-20T14:47:58;3.55;;;3.25;;
42194;SDS011;27863;49.440;11.102;2023-03-20T14:57:31;3.83;;;3.53;;
42194;SDS011;27863;49.440;11.102;2023-03-20T15:00:33;3.40;;;3.10;;
42194;SDS011;27863;49.440;11.102;2023-03-20T15:03:35;4.13;;;3.53;;
42194;SDS011;27863;49.440;11.102;2023-03-20T15:06:43;3.55;;;3.25;;
42194;SDS011;27863;49.440;11.102;2023-03-20T15:09:48;4.07;;;3.70;;
42194;SDS011;27863;49.440;11.102;2023-03-20T15:12:52;4.72;;;3.33;;
42194;SDS011;27863;49.440;11.102;2023-03-20T15:16:05;4.57;;;4.17;;
42194;SDS011;27863;49.440;11.102;2023-03-20T15:19:14;4.43;;;4.03;;
42194;SDS011;27863;49.440;11.102;2023-03-20T15:22:19;3.63;;;3.33;;
42194;SDS011;27863;49.440;11.102;2023-03-20T15:25:22;4.93;;;3.00;;
42194;SDS011;27863;49.440;11.102;2023-03-20T15:28:25;4.87;;;3.80;;
42194;SDS011;27863;49.440;11.102;2023-03-20T15:31:28;5.60;;;4.23;;
42194;SDS011;27863;49.440;11.102;2023-03-20T15:34:31;5.17;;;4.20;;
42194;SDS011;27863;49.440;11.102;2023-03-20T15:37:34;5.23;;;3.10;;
42194;SDS011;27863;49.440;11.102;2023-03-20T15:40:37;4.83;;;4.27;;
42194;SDS011;27863;49.440;11.102;2023-03-20T15:43:39;4.93;;;4.53;;
42194;SDS011;27863;49.440;11.102;2023-03-20T15:46:59;4.83;;;4.50;;
42194;SDS011;27863;49.440;11.102;2023-03-20T15:50:04;4.87;;;4.47;;
42194;SDS011;27863;49.440;11.102;2023-03-20T15:53:14;7.00;;;6.30;;
42194;SDS011;27863;49.440;11.102;2023-03-20T15:56:28;5.03;;;4.63;;
42194;SDS011;27863;49.440;11.102;2023-03-20T15:59:30;5.07;;;4.57;;
42194;SDS011;27863;49.440;11.102;2023-03-20T16:02:32;6.00;;;5.43;;
42194;SDS011;27863;49.440;11.102;2023-03-20T16:05:34;6.30;;;5.13;;
42194;SDS011;27863;49.440;11.102;2023-03-20T16:08:36;7.93;;;5.83;;
42194;SDS011;27863;49.440;11.102;2023-03-20T16:11:39;5.97;;;5.37;;
42194;SDS011;27863;49.440;11.102;2023-03-20T16:14:41;6.53;;;5.80;;
42194;SDS011;27863;49.440;11.102;2023-03-20T16:17:43;6.10;;;5.50;;
42194;SDS011;27863;49.440;11.102;2023-03-20T16:21:04;5.97;;;5.47;;
42194;SDS011;27863;49.440;11.102;2023-03-20T16:24:30;5.77;;;5.27;;
42194;SDS011;27863;49.440;11.102;2023-03-20T16:27:34;8.33;;;7.53;;
42194;SDS011;27863;49.440;11.102;2023-03-20T16:30:35;6.77;;;6.07;;
42194;SDS011;27863;49.440;11.102;2023-03-20T16:33:36;6.40;;;5.63;;
42194;SDS011;27863;49.440;11.102;2023-03-20T16:36:38;6.20;;;5.60;;
42194;SDS011;27863;49.440;11.102;2023-03-20T16:39:39;6.20;;;5.63;;
42194;SDS011;27863;49.440;11.102;2023-03-20T16:42:39;5.93;;;5.33;;
42194;SDS011;27863;49.440;11.102;2023-03-20T16:45:41;6.03;;;4.93;;
42194;SDS011;27863;49.440;11.102;2023-03-20T16:48:46;6.00;;;5.00;;
42194;SDS011;27863;49.440;11.102;2023-03-20T16:51:46;5.30;;;4.80;;
42194;SDS011;27863;49.440;11.102;2023-03-20T16:54:47;5.40;;;4.90;;
42194;SDS011;27863;49.440;11.102;2023-03-20T16:57:48;4.77;;;4.37;;
42194;SDS011;27863;49.440;11.102;2023-03-20T17:00:51;4.93;;;4.47;;
42194;SDS011;27863;49.440;11.102;2023-03-20T17:07:20;5.23;;;4.73;;
42194;SDS011;27863;49.440;11.102;2023-03-20T17:10:27;4.57;;;4.17;;
42194;SDS011;27863;49.440;11.102;2023-03-20T17:13:28;4.93;;;4.50;;
42194;SDS011;27863;49.440;11.102;2023-03-20T17:16:30;4.97;;;4.57;;
42194;SDS011;27863;49.440;11.102;2023-03-20T17:19:33;5.07;;;4.57;;
42194;SDS011;27863;49.440;11.102;2023-03-20T17:22:33;5.27;;;4.77;;
42194;SDS011;27863;49.440;11.102;2023-03-20T17:25:34;4.80;;;4.30;;
42194;SDS011;27863;49.440;11.102;2023-03-20T17:28:35;5.27;;;4.80;;
42194;SDS011;27863;49.440;11.102;2023-03-20T17:31:36;5.17;;;4.77;;
42194;SDS011;27863;49.440;11.102;2023-03-20T17:34:37;4.87;;;4.47;;
42194;SDS011;27863;49.440;11.102;2023-03-20T17:37:37;6.23;;;5.63;;
42194;SDS011;27863;49.440;11.102;2023-03-20T17:40:38;4.93;;;4.53;;
42194;SDS011;27863;49.440;11.102;2023-03-20T17:43:39;5.87;;;5.37;;
42194;SDS011;27863;49.440;11.102;2023-03-20T17:46:40;6.23;;;5.63;;
42194;SDS011;27863;49.440;11.102;2023-03-20T17:49:40;6.03;;;5.43;;
42194;SDS011;27863;49.440;11.102;2023-03-20T17:52:41;6.87;;;6.23;;
42194;SDS011;27863;49.440;11.102;2023-03-20T17:55:42;6.40;;;5.80;;
42194;SDS011;27863;49.440;11.102;2023-03-20T17:58:42;7.37;;;6.60;;
42194;SDS011;27863;49.440;11.102;2023-03-20T18:01:43;6.40;;;5.80;;
42194;SDS011;27863;49.440;11.102;2023-03-20T18:04:44;9.40;;;6.20;;
42194;SDS011;27863;49.440;11.102;2023-03-20T18:07:45;10.37;;;6.13;;
42194;SDS011;27863;49.440;11.102;2023-03-20T18:10:46;6.70;;;6.00;;
42194;SDS011;27863;49.440;11.102;2023-03-20T18:13:48;6.97;;;6.30;;
42194;SDS011;27863;49.440;11.102;2023-03-20T18:16:49;7.87;;;6.73;;
42194;SDS011;27863;49.440;11.102;2023-03-20T18:19:50;9.43;;;7.13;;
42194;SDS011;27863;49.440;11.102;2023-03-20T18:22:50;7.17;;;6.57;;
42194;SDS011;27863;49.440;11.102;2023-03-20T18:25:51;7.57;;;6.87;;
42194;SDS011;27863;49.440;11.102;2023-03-20T18:28:52;7.20;;;6.57;;
42194;SDS011;27863;49.440;11.102;2023-03-20T18:31:54;7.17;;;6.47;;
42194;SDS011;27863;49.440;11.102;2023-03-20T18:34:54;7.80;;;7.13;;
42194;SDS011;27863;49.440;11.102;2023-03-20T18:37:55;6.50;;;5.97;;
42194;SDS011;27863;49.440;11.102;2023-03-20T18:40:55;8.03;;;7.30;;
42194;SDS011;27863;49.440;11.102;2023-03-20T18:43:57;7.37;;;6.67;;
42194;SDS011;27863;49.440;11.102;2023-03-20T18:46:57;6.87;;;6.27;;
42194;SDS011;27863;49.440;11.102;2023-03-20T18:49:58;7.63;;;6.93;;
42194;SDS011;27863;49.440;11.102;2023-03-20T18:52:58;6.77;;;6.17;;
42194;SDS011;27863;49.440;11.102;2023-03-20T18:55:59;7.57;;;6.90;;
42194;SDS011;27863;49.440;11.102;2023-03-20T18:59:00;8.83;;;7.67;;
42194;SDS011;27863;49.440;11.102;2023-03-20T19:02:00;7.10;;;6.50;;
42194;SDS011;27863;49.440;11.102;2023-03-20T19:05:01;8.53;;;7.73;;
42194;SDS011;27863;49.440;11.102;2023-03-20T19:08:03;8.20;;;7.27;;
42194;SDS011;27863;49.440;11.102;2023-03-20T19:11:04;6.90;;;6.13;;
42194;SDS011;27863;49.440;11.102;2023-03-20T19:14:05;7.43;;;6.73;;
42194;SDS011;27863;49.440;11.102;2023-03-20T19:17:05;8.30;;;6.63;;
42194;SDS011;27863;49.440;11.102;2023-03-20T19:20:08;6.70;;;6.10;;
42194;SDS011;27863;49.440;11.102;2023-03-20T19:23:34;7.17;;;6.47;;
42194;SDS011;27863;49.440;11.102;2023-03-20T19:26:35;6.47;;;5.87;;
42194;SDS011;27863;49.440;11.102;2023-03-20T19:29:36;6.17;;;5.67;;
42194;SDS011;27863;49.440;11.102;2023-03-20T19:32:37;13.97;;;7.30;;
42194;SDS011;27863;49.440;11.102;2023-03-20T19:35:37;8.43;;;7.23;;
42194;SDS011;27863;49.440;11.102;2023-03-20T19:38:38;8.50;;;7.30;;
42194;SDS011;27863;49.440;11.102;2023-03-20T19:41:38;6.90;;;6.30;;
42194;SDS011;27863;49.440;11.102;2023-03-20T19:44:40;7.43;;;6.73;;
42194;SDS011;27863;49.440;11.102;2023-03-20T19:47:42;6.97;;;6.43;;
42194;SDS011;27863;49.440;11.102;2023-03-20T19:50:43;8.07;;;7.33;;
42194;SDS011;27863;49.440;11.102;2023-03-20T19:53:45;6.67;;;6.07;;
42194;SDS011;27863;49.440;11.102;2023-03-20T19:56:46;6.73;;;6.13;;
42194;SDS011;27863;49.440;11.102;2023-03-20T19:59:47;6.80;;;5.83;;
42194;SDS011;27863;49.440;11.102;2023-03-20T20:02:50;8.13;;;6.87;;
42194;SDS011;27863;49.440;11.102;2023-03-20T20:05:52;7.63;;;6.83;;
42194;SDS011;27863;49.440;11.102;2023-03-20T20:08:55;9.53;;;8.53;;